createdAt,value
2019-02-16T00:00:24.987Z,-0.7
2019-02-16T00:01:34.900Z,-0.57
2019-02-16T00:02:44.915Z,-0.56
2019-02-16T00:03:54.829Z,-0.54
2019-02-16T00:05:04.746Z,-0.62
2019-02-16T00:06:14.664Z,-0.72
2019-02-16T00:07:24.586Z,-0.6
2019-02-16T00:08:34.602Z,-0.66
2019-02-16T00:09:44.518Z,-0.7
2019-02-16T00:10:54.431Z,-0.56
2019-02-16T00:12:04.346Z,-0.57
2019-02-16T00:13:14.017Z,-0.59
2019-02-16T00:14:24.032Z,-0.64
2019-02-16T00:15:33.963Z,-0.62
2019-02-16T00:16:43.890Z,-0.54
2019-02-16T00:17:53.808Z,-0.54
2019-02-16T00:19:03.744Z,-0.63
2019-02-16T00:20:13.666Z,-0.63
2019-02-16T00:21:23.584Z,-0.66
2019-02-16T00:22:33.507Z,-0.59
2019-02-16T00:23:43.420Z,-0.6
2019-02-16T00:24:53.339Z,-0.54
2019-02-16T00:26:03.306Z,-0.57
2019-02-16T00:27:13.221Z,-0.63
2019-02-16T00:28:23.143Z,-0.62
2019-02-16T00:29:33.066Z,-0.67
2019-02-16T00:30:42.981Z,-0.62
2019-02-16T00:31:53.007Z,-0.64
2019-02-16T00:33:02.962Z,-0.69
2019-02-16T00:34:12.896Z,-0.7
2019-02-16T00:35:22.820Z,-0.77
2019-02-16T00:36:32.754Z,-0.85
2019-02-16T00:37:42.791Z,-0.75
2019-02-16T00:38:54.167Z,-0.78
2019-02-16T00:40:04.313Z,-0.72
2019-02-16T00:41:14.235Z,-0.72
2019-02-16T00:42:24.174Z,-0.8
2019-02-16T00:43:34.088Z,-0.96
2019-02-16T00:44:44.012Z,-0.82
2019-02-16T00:45:53.692Z,-0.87
2019-02-16T00:47:03.615Z,-0.96
2019-02-16T00:48:13.547Z,-0.85
2019-02-16T00:49:23.569Z,-1.03
2019-02-16T00:50:33.490Z,-0.85
2019-02-16T00:51:43.414Z,-0.81
2019-02-16T00:52:53.345Z,-1.03
2019-02-16T00:54:03.272Z,-0.99
2019-02-16T00:55:13.286Z,-0.94
2019-02-16T00:56:23.211Z,-1
2019-02-16T00:57:33.136Z,-0.96
2019-02-16T00:58:43.059Z,-0.94
2019-02-16T00:59:53.263Z,-0.99
2019-02-16T01:01:03.185Z,-0.97
2019-02-16T01:02:13.112Z,-1.03
2019-02-16T01:03:23.030Z,-1.01
2019-02-16T01:04:32.949Z,-1
2019-02-16T01:05:44.476Z,-0.99
2019-02-16T01:06:54.756Z,-0.99
2019-02-16T01:08:04.674Z,-0.99
2019-02-16T01:09:14.602Z,-1.06
2019-02-16T01:10:24.522Z,-1.03
2019-02-16T01:11:34.438Z,-1.06
2019-02-16T01:12:44.458Z,-1.11
2019-02-16T01:13:54.383Z,-1.12
2019-02-16T01:15:04.303Z,-1.17
2019-02-16T01:16:14.223Z,-1.18
2019-02-16T01:17:24.148Z,-1.19
2019-02-16T01:18:34.169Z,-1.11
2019-02-16T01:19:44.087Z,-1.18
2019-02-16T01:20:53.998Z,-1.14
2019-02-16T01:22:03.942Z,-1.22
2019-02-16T01:23:13.874Z,-1.21
2019-02-16T01:24:23.791Z,-1.21
2019-02-16T01:25:33.749Z,-1.19
2019-02-16T01:26:43.719Z,-1.21
2019-02-16T01:27:53.636Z,-1.19
2019-02-16T01:29:03.048Z,-1.22
2019-02-16T01:30:13.068Z,-1.25
2019-02-16T01:31:22.990Z,-1.22
2019-02-16T01:32:32.910Z,-1.29
2019-02-16T01:33:42.829Z,-1.29
2019-02-16T01:34:53.304Z,-1.29
2019-02-16T01:36:03.230Z,-1.4
2019-02-16T01:37:13.146Z,-1.4
2019-02-16T01:38:23.066Z,-1.36
2019-02-16T01:39:32.982Z,-1.42
2019-02-16T01:40:42.898Z,-1.42
2019-02-16T01:41:52.841Z,-1.45
2019-02-16T01:43:02.758Z,-1.5
2019-02-16T01:44:12.677Z,-1.42
2019-02-16T01:45:22.595Z,-1.57
2019-02-16T01:46:32.518Z,-1.57
2019-02-16T01:47:42.535Z,-1.64
2019-02-16T01:48:52.459Z,-1.76
2019-02-16T01:50:02.377Z,-1.81
2019-02-16T01:51:12.297Z,-1.84
2019-02-16T01:52:22.219Z,-1.82
2019-02-16T01:53:32.238Z,-1.76
2019-02-16T01:54:42.155Z,-1.78
2019-02-16T01:55:52.425Z,-1.76
2019-02-16T01:57:02.348Z,-1.76
2019-02-16T01:58:12.276Z,-1.71
2019-02-16T01:59:22.296Z,-1.61
2019-02-16T02:00:32.210Z,-1.71
2019-02-16T02:01:42.129Z,-1.6
2019-02-16T02:02:51.791Z,-1.53
2019-02-16T02:04:01.708Z,-1.53
2019-02-16T02:05:11.724Z,-1.5
2019-02-16T02:06:21.643Z,-1.57
2019-02-16T02:07:31.558Z,-1.54
2019-02-16T02:08:41.475Z,-1.57
2019-02-16T02:09:51.471Z,-1.56
2019-02-16T02:11:01.438Z,-1.57
2019-02-16T02:12:11.358Z,-1.5
2019-02-16T02:13:21.282Z,-1.5
2019-02-16T02:14:31.199Z,-1.61
2019-02-16T02:15:40.860Z,-1.64
2019-02-16T02:16:50.783Z,-1.66
2019-02-16T02:18:00.695Z,-1.68
2019-02-16T02:19:10.615Z,-1.6
2019-02-16T02:20:20.539Z,-1.64
2019-02-16T02:21:30.465Z,-1.6
2019-02-16T02:22:48.638Z,-1.54
2019-02-16T02:23:58.553Z,-1.53
2019-02-16T02:25:08.500Z,-1.56
2019-02-16T02:26:18.416Z,-1.53
2019-02-16T02:27:28.336Z,-1.53
2019-02-16T02:28:38.302Z,-1.57
2019-02-16T02:29:48.221Z,-1.68
2019-02-16T02:30:58.155Z,-1.61
2019-02-16T02:32:08.073Z,-1.64
2019-02-16T02:33:17.992Z,-1.54
2019-02-16T02:34:28.075Z,-1.69
2019-02-16T02:35:37.999Z,-1.72
2019-02-16T02:36:48.249Z,-1.68
2019-02-16T02:37:58.211Z,-1.66
2019-02-16T02:39:08.143Z,-1.74
2019-02-16T02:40:18.087Z,-1.6
2019-02-16T02:41:28.007Z,-1.68
2019-02-16T02:42:37.932Z,-1.6
2019-02-16T02:43:48.342Z,-1.71
2019-02-16T02:44:58.289Z,-1.71
2019-02-16T02:46:08.313Z,-1.68
2019-02-16T02:47:18.231Z,-1.68
2019-02-16T02:48:28.144Z,-1.66
2019-02-16T02:49:38.065Z,-1.76
2019-02-16T02:50:48.062Z,-1.72
2019-02-16T02:51:58.109Z,-1.86
2019-02-16T02:53:07.798Z,-1.86
2019-02-16T02:54:17.724Z,-1.92
2019-02-16T02:55:27.652Z,-1.87
2019-02-16T02:56:37.566Z,-1.93
2019-02-16T02:57:47.503Z,-1.9
2019-02-16T02:58:57.453Z,-1.82
2019-02-16T03:00:07.470Z,-1.9
2019-02-16T03:01:17.406Z,-1.75
2019-02-16T03:02:27.333Z,-1.75
2019-02-16T03:03:37.351Z,-1.79
2019-02-16T03:04:47.290Z,-1.75
2019-02-16T03:05:57.219Z,-1.79
2019-02-16T03:07:07.136Z,-1.79
2019-02-16T03:08:17.073Z,-1.74
2019-02-16T03:09:26.997Z,-1.66
2019-02-16T03:10:36.916Z,-1.64
2019-02-16T03:11:47.218Z,-1.51
2019-02-16T03:12:57.209Z,-1.57
2019-02-16T03:14:07.168Z,-1.53
2019-02-16T03:15:17.195Z,-1.45
2019-02-16T03:16:28.643Z,-1.45
2019-02-16T03:17:38.604Z,-1.46
2019-02-16T03:18:48.279Z,-1.51
2019-02-16T03:19:58.199Z,-1.48
2019-02-16T03:21:07.981Z,-1.45
2019-02-16T03:22:17.902Z,-1.43
2019-02-16T03:23:27.568Z,-1.4
2019-02-16T03:24:37.581Z,-1.36
2019-02-16T03:25:47.518Z,-1.33
2019-02-16T03:26:57.515Z,-1.32
2019-02-16T03:28:07.436Z,-1.38
2019-02-16T03:29:17.416Z,-1.3
2019-02-16T03:30:27.370Z,-1.39
2019-02-16T03:31:37.379Z,-1.32
2019-02-16T03:32:47.404Z,-1.29
2019-02-16T03:33:57.365Z,-1.29
2019-02-16T03:35:07.318Z,-1.36
2019-02-16T03:36:17.370Z,-1.27
2019-02-16T03:37:27.292Z,-1.33
2019-02-16T03:38:36.955Z,-1.42
2019-02-16T03:39:46.906Z,-1.3
2019-02-16T03:40:56.589Z,-1.38
2019-02-16T03:42:06.524Z,-1.35
2019-02-16T03:43:16.441Z,-1.36
2019-02-16T03:44:26.460Z,-1.46
2019-02-16T03:45:36.373Z,-1.4
2019-02-16T03:46:46.289Z,-1.43
2019-02-16T03:47:56.213Z,-1.43
2019-02-16T03:49:06.134Z,-1.5
2019-02-16T03:50:16.149Z,-1.57
2019-02-16T03:51:26.070Z,-1.5
2019-02-16T03:52:36.031Z,-1.64
2019-02-16T03:53:45.954Z,-1.71
2019-02-16T03:54:55.889Z,-1.64
2019-02-16T03:56:05.884Z,-1.6
2019-02-16T03:57:15.803Z,-1.56
2019-02-16T03:58:25.471Z,-1.51
2019-02-16T03:59:35.145Z,-1.58
2019-02-16T04:00:45.061Z,-1.56
2019-02-16T04:01:55.189Z,-1.51
2019-02-16T04:03:05.162Z,-1.54
2019-02-16T04:04:15.089Z,-1.64
2019-02-16T04:05:25.007Z,-1.72
2019-02-16T04:06:34.941Z,-1.68
2019-02-16T04:07:44.863Z,-1.86
2019-02-16T04:08:54.783Z,-1.97
2019-02-16T04:10:04.724Z,-1.99
2019-02-16T04:11:14.727Z,-1.96
2019-02-16T04:12:24.655Z,-1.96
2019-02-16T04:13:34.695Z,-1.9
2019-02-16T04:14:44.626Z,-1.9
2019-02-16T04:15:54.562Z,-1.9
2019-02-16T04:17:04.489Z,-1.86
2019-02-16T04:18:14.414Z,-1.86
2019-02-16T04:19:24.428Z,-1.86
2019-02-16T04:20:34.108Z,-1.87
2019-02-16T04:21:44.056Z,-1.89
2019-02-16T04:22:53.974Z,-1.93
2019-02-16T04:24:03.908Z,-1.86
2019-02-16T04:25:13.924Z,-1.89
2019-02-16T04:26:23.841Z,-1.81
2019-02-16T04:27:33.782Z,-1.89
2019-02-16T04:28:43.701Z,-1.81
2019-02-16T04:29:53.630Z,-1.71
2019-02-16T04:31:03.645Z,-1.82
2019-02-16T04:32:13.566Z,-1.96
2019-02-16T04:33:23.503Z,-1.87
2019-02-16T04:34:33.431Z,-1.87
2019-02-16T04:35:43.371Z,-1.79
2019-02-16T04:36:53.334Z,-1.79
2019-02-16T04:38:03.265Z,-1.78
2019-02-16T04:39:13.185Z,-1.75
2019-02-16T04:40:23.127Z,-1.84
2019-02-16T04:41:33.068Z,-1.9
2019-02-16T04:42:43.111Z,-2.04
2019-02-16T04:43:53.031Z,-1.99
2019-02-16T04:45:02.950Z,-1.97
2019-02-16T04:46:12.882Z,-2.07
2019-02-16T04:47:22.821Z,-2.07
2019-02-16T04:48:32.838Z,-2
2019-02-16T04:49:42.765Z,-1.99
2019-02-16T04:50:52.674Z,-1.93
2019-02-16T04:52:02.597Z,-1.94
2019-02-16T04:53:12.535Z,-1.93
2019-02-16T04:54:22.501Z,-2
2019-02-16T04:55:32.431Z,-2
2019-02-16T04:56:42.378Z,-1.96
2019-02-16T04:57:52.315Z,-1.94
2019-02-16T04:59:02.236Z,-1.87
2019-02-16T05:00:12.286Z,-1.9
2019-02-16T05:01:22.204Z,-1.93
2019-02-16T05:02:32.132Z,-1.89
2019-02-16T05:03:42.071Z,-1.89
2019-02-16T05:04:52.348Z,-1.96
2019-02-16T05:06:04.569Z,-1.9
2019-02-16T05:07:14.495Z,-1.84
2019-02-16T05:08:24.468Z,-1.81
2019-02-16T05:09:34.399Z,-1.75
2019-02-16T05:10:44.322Z,-1.81
2019-02-16T05:11:54.340Z,-1.81
2019-02-16T05:13:04.334Z,-1.74
2019-02-16T05:14:14.282Z,-1.66
2019-02-16T05:15:24.205Z,-1.6
2019-02-16T05:16:34.127Z,-1.61
2019-02-16T05:17:44.145Z,-1.6
2019-02-16T05:18:54.066Z,-1.57
2019-02-16T05:20:04.034Z,-1.53
2019-02-16T05:21:13.995Z,-1.53
2019-02-16T05:22:23.913Z,-1.5
2019-02-16T05:23:33.837Z,-1.48
2019-02-16T05:24:43.762Z,-1.46
2019-02-16T05:25:55.977Z,-1.46
2019-02-16T05:27:06.060Z,-1.45
2019-02-16T05:28:15.724Z,-1.54
2019-02-16T05:29:25.750Z,-1.54
2019-02-16T05:30:35.702Z,-1.54
2019-02-16T05:31:45.623Z,-1.57
2019-02-16T05:32:55.549Z,-1.71
2019-02-16T05:34:05.477Z,-1.64
2019-02-16T05:35:15.515Z,-1.64
2019-02-16T05:36:25.464Z,-1.6
2019-02-16T05:37:35.469Z,-1.6
2019-02-16T05:38:45.393Z,-1.74
2019-02-16T05:39:55.309Z,-1.76
2019-02-16T05:41:05.349Z,-1.84
2019-02-16T05:42:15.296Z,-1.86
2019-02-16T05:43:24.959Z,-1.82
2019-02-16T05:44:34.886Z,-1.84
2019-02-16T05:45:44.804Z,-1.79
2019-02-16T05:46:54.837Z,-1.81
2019-02-16T05:48:04.762Z,-1.76
2019-02-16T05:49:14.687Z,-1.76
2019-02-16T05:50:24.605Z,-1.82
2019-02-16T05:51:34.529Z,-1.82
2019-02-16T05:52:53.693Z,-1.82
2019-02-16T05:54:03.876Z,-1.82
2019-02-16T05:55:13.555Z,-1.82
2019-02-16T05:56:23.472Z,-1.84
2019-02-16T05:57:33.416Z,-1.89
2019-02-16T05:58:43.337Z,-1.87
2019-02-16T05:59:53.253Z,-1.96
2019-02-16T06:01:03.167Z,-1.96
2019-02-16T06:02:13.092Z,-1.86
2019-02-16T06:03:23.019Z,-1.86
2019-02-16T06:04:33.044Z,-1.87
2019-02-16T06:05:43.488Z,-1.9
2019-02-16T06:06:53.408Z,-1.87
2019-02-16T06:08:03.097Z,-1.96
2019-02-16T06:09:12.769Z,-1.82
2019-02-16T06:10:22.873Z,-1.84
2019-02-16T06:11:32.799Z,-1.79
2019-02-16T06:12:42.745Z,-1.79
2019-02-16T06:13:52.860Z,-1.72
2019-02-16T06:15:02.791Z,-1.76
2019-02-16T06:16:12.813Z,-1.75
2019-02-16T06:17:22.727Z,-1.63
2019-02-16T06:18:32.654Z,-1.61
2019-02-16T06:19:42.570Z,-1.48
2019-02-16T06:20:52.493Z,-1.42
2019-02-16T06:22:02.413Z,-1.39
2019-02-16T06:23:12.344Z,-1.51
2019-02-16T06:24:22.271Z,-1.4
2019-02-16T06:25:32.205Z,-1.42
2019-02-16T06:26:42.130Z,-1.39
2019-02-16T06:27:52.344Z,-1.42
2019-02-16T06:29:02.322Z,-1.42
2019-02-16T06:30:12.298Z,-1.45
2019-02-16T06:31:22.215Z,-1.38
2019-02-16T06:32:32.134Z,-1.33
2019-02-16T06:33:42.052Z,-1.33
2019-02-16T06:34:51.977Z,-1.35
2019-02-16T06:36:01.903Z,-1.39
2019-02-16T06:37:11.834Z,-1.3
2019-02-16T06:38:21.772Z,-1.33
2019-02-16T06:39:31.508Z,-1.29
2019-02-16T06:40:43.582Z,-1.38
2019-02-16T06:41:53.501Z,-1.25
2019-02-16T06:43:03.426Z,-1.45
2019-02-16T06:44:13.357Z,-1.35
2019-02-16T06:45:23.280Z,-1.4
2019-02-16T06:46:33.194Z,-1.4
2019-02-16T06:47:43.110Z,-1.4
2019-02-16T06:48:53.034Z,-1.54
2019-02-16T06:50:02.950Z,-1.45
2019-02-16T06:51:14.848Z,-1.53
2019-02-16T06:52:24.920Z,-1.53
2019-02-16T06:53:34.838Z,-1.57
2019-02-16T06:54:44.520Z,-1.48
2019-02-16T06:55:54.442Z,-1.57
2019-02-16T06:57:04.365Z,-1.53
2019-02-16T06:58:14.289Z,-1.56
2019-02-16T06:59:24.216Z,-1.54
2019-02-16T07:00:34.139Z,-1.56
2019-02-16T07:01:44.078Z,-1.46
2019-02-16T07:02:54.048Z,-1.43
2019-02-16T07:04:03.967Z,-1.43
2019-02-16T07:05:13.642Z,-1.39
2019-02-16T07:06:23.582Z,-1.42
2019-02-16T07:07:33.497Z,-1.42
2019-02-16T07:08:44.194Z,-1.38
2019-02-16T07:09:54.282Z,-1.4
2019-02-16T07:11:04.205Z,-1.33
2019-02-16T07:12:14.124Z,-1.32
2019-02-16T07:13:24.082Z,-1.27
2019-02-16T07:14:34.394Z,-1.27
2019-02-16T07:15:44.328Z,-1.32
2019-02-16T07:16:54.254Z,-1.32
2019-02-16T07:18:04.182Z,-1.27
2019-02-16T07:19:14.105Z,-1.35
2019-02-16T07:20:24.124Z,-1.19
2019-02-16T07:21:34.048Z,-1.22
2019-02-16T07:22:44.105Z,-1.15
2019-02-16T07:23:54.024Z,-1.14
2019-02-16T07:25:03.958Z,-1.14
2019-02-16T07:26:13.977Z,-1.07
2019-02-16T07:27:23.896Z,-1.03
2019-02-16T07:28:33.869Z,-1
2019-02-16T07:29:43.788Z,-1
2019-02-16T07:30:53.719Z,-0.85
2019-02-16T07:32:03.658Z,-0.84
2019-02-16T07:33:13.576Z,-0.99
2019-02-16T07:34:23.554Z,-0.96
2019-02-16T07:35:33.550Z,-0.99
2019-02-16T07:36:43.484Z,-0.8
2019-02-16T07:37:53.520Z,-0.94
2019-02-16T07:39:03.451Z,-0.81
2019-02-16T07:40:13.372Z,-0.93
2019-02-16T07:41:23.295Z,-0.89
2019-02-16T07:42:33.222Z,-0.89
2019-02-16T07:43:43.246Z,-0.89
2019-02-16T07:44:52.912Z,-0.85
2019-02-16T07:46:02.843Z,-0.78
2019-02-16T07:47:12.774Z,-0.72
2019-02-16T07:48:22.694Z,-0.78
2019-02-16T07:49:32.610Z,-0.72
2019-02-16T07:50:42.597Z,-0.89
2019-02-16T07:51:52.522Z,-0.84
2019-02-16T07:53:02.446Z,-0.84
2019-02-16T07:54:12.110Z,-0.74
2019-02-16T07:55:23.110Z,-0.89
2019-02-16T07:56:33.031Z,-0.97
2019-02-16T07:57:42.950Z,-1
2019-02-16T07:58:52.914Z,-1.14
2019-02-16T08:00:02.837Z,-1.12
2019-02-16T08:01:12.870Z,-1.19
2019-02-16T08:02:22.541Z,-1.21
2019-02-16T08:03:32.460Z,-1.21
2019-02-16T08:04:42.379Z,-1.14
2019-02-16T08:05:52.303Z,-1.07
2019-02-16T08:07:02.335Z,-1.06
2019-02-16T08:08:12.254Z,-0.91
2019-02-16T08:09:21.970Z,-1.01
2019-02-16T08:10:31.890Z,-1
2019-02-16T08:11:41.810Z,-0.91
2019-02-16T08:12:51.825Z,-0.82
2019-02-16T08:14:02.957Z,-0.85
2019-02-16T08:15:12.877Z,-0.78
2019-02-16T08:16:22.802Z,-0.75
2019-02-16T08:17:32.718Z,-0.72
2019-02-16T08:18:42.639Z,-0.72
2019-02-16T08:19:52.578Z,-0.77
2019-02-16T08:21:02.496Z,-0.66
2019-02-16T08:22:12.424Z,-0.59
2019-02-16T08:23:22.092Z,-0.56
2019-02-16T08:24:32.008Z,-0.63
2019-02-16T08:25:43.916Z,-0.53
2019-02-16T08:26:53.848Z,-0.49
2019-02-16T08:28:03.773Z,-0.44
2019-02-16T08:29:13.737Z,-0.39
2019-02-16T08:30:23.661Z,-0.28
2019-02-16T08:31:33.579Z,-0.31
2019-02-16T08:32:43.507Z,-0.26
2019-02-16T08:33:53.426Z,-0.31
2019-02-16T08:35:03.342Z,-0.2
2019-02-16T08:36:13.279Z,-0.12
2019-02-16T08:37:23.201Z,-0.3
2019-02-16T08:38:33.119Z,-0.28
2019-02-16T08:39:43.040Z,-0.31
2019-02-16T08:40:52.965Z,-0.3
2019-02-16T08:42:02.986Z,-0.31
2019-02-16T08:43:12.915Z,-0.28
2019-02-16T08:44:22.836Z,-0.3
2019-02-16T08:45:32.794Z,-0.3
2019-02-16T08:46:42.713Z,-0.2
2019-02-16T08:47:52.733Z,-0.15
2019-02-16T08:49:02.652Z,-0.13
2019-02-16T08:50:12.573Z,-0.17
2019-02-16T08:51:22.244Z,-0.09
2019-02-16T08:52:32.166Z,0
2019-02-16T08:53:49.508Z,0
2019-02-16T08:54:59.678Z,0.08
2019-02-16T08:56:09.611Z,0.12
2019-02-16T08:57:19.541Z,0.08
2019-02-16T08:58:29.458Z,0.08
2019-02-16T08:59:39.378Z,0.15
2019-02-16T09:00:49.300Z,0.11
2019-02-16T09:01:59.221Z,0.18
2019-02-16T09:03:09.142Z,0.16
2019-02-16T09:04:19.064Z,0.16
2019-02-16T09:05:29.080Z,0.18
2019-02-16T09:06:39.013Z,0.23
2019-02-16T09:07:48.932Z,0.16
2019-02-16T09:08:58.855Z,0.27
2019-02-16T09:10:08.794Z,0.31
2019-02-16T09:11:18.777Z,0.29
2019-02-16T09:12:28.693Z,0.15
2019-02-16T09:13:38.621Z,0.13
2019-02-16T09:14:48.550Z,0.24
2019-02-16T09:15:58.469Z,0.15
2019-02-16T09:17:08.481Z,0.23
2019-02-16T09:18:18.719Z,0.18
2019-02-16T09:19:28.640Z,0.18
2019-02-16T09:20:38.565Z,0.31
2019-02-16T09:21:48.481Z,0.39
2019-02-16T09:22:58.511Z,0.45
2019-02-16T09:24:08.430Z,0.49
2019-02-16T09:25:18.353Z,0.51
2019-02-16T09:26:28.272Z,0.68
2019-02-16T09:27:38.198Z,0.7
2019-02-16T09:28:48.165Z,0.76
2019-02-16T09:29:58.088Z,0.85
2019-02-16T09:31:08.005Z,0.91
2019-02-16T09:32:18.119Z,1.02
2019-02-16T09:33:28.043Z,1.12
2019-02-16T09:34:38.284Z,1.3
2019-02-16T09:35:48.225Z,1.39
2019-02-16T09:36:58.150Z,1.52
2019-02-16T09:38:08.077Z,1.57
2019-02-16T09:39:18.001Z,1.56
2019-02-16T09:40:28.019Z,1.68
2019-02-16T09:41:37.950Z,1.75
2019-02-16T09:42:47.872Z,1.68
2019-02-16T09:43:57.789Z,1.74
2019-02-16T09:45:07.724Z,1.71
2019-02-16T09:46:17.755Z,1.67
2019-02-16T09:47:27.677Z,1.7
2019-02-16T09:48:37.592Z,1.79
2019-02-16T09:49:47.509Z,1.76
2019-02-16T09:50:57.429Z,1.66
2019-02-16T09:52:07.202Z,1.3
2019-02-16T09:53:17.128Z,1.25
2019-02-16T09:54:27.051Z,1.21
2019-02-16T09:55:36.973Z,1.18
2019-02-16T09:56:46.893Z,1.24
2019-02-16T09:57:57.030Z,1.06
2019-02-16T09:59:06.950Z,0.92
2019-02-16T10:00:18.834Z,0.89
2019-02-16T10:01:28.759Z,0.85
2019-02-16T10:02:38.677Z,0.85
2019-02-16T10:03:48.702Z,0.78
2019-02-16T10:04:58.633Z,0.91
2019-02-16T10:06:08.595Z,0.95
2019-02-16T10:07:18.522Z,0.96
2019-02-16T10:08:28.442Z,1.04
2019-02-16T10:09:38.469Z,1.07
2019-02-16T10:10:48.403Z,0.82
2019-02-16T10:11:58.321Z,0.76
2019-02-16T10:13:08.239Z,0.36
2019-02-16T10:14:18.159Z,0.13
2019-02-16T10:15:28.179Z,-0.05
2019-02-16T10:16:38.096Z,-0.06
2019-02-16T10:17:48.064Z,-0.18
2019-02-16T10:18:57.991Z,-0.15
2019-02-16T10:20:07.921Z,-0.35
2019-02-16T10:21:17.895Z,-0.31
2019-02-16T10:22:27.815Z,-0.33
2019-02-16T10:23:37.731Z,-0.2
2019-02-16T10:24:47.654Z,-0.12
2019-02-16T10:25:57.459Z,0.01
2019-02-16T10:27:07.392Z,0.06
2019-02-16T10:28:17.309Z,0.08
2019-02-16T10:29:28.891Z,0.13
2019-02-16T10:30:38.817Z,0.13
2019-02-16T10:31:48.773Z,0.23
2019-02-16T10:32:58.747Z,0.26
2019-02-16T10:34:08.421Z,0.34
2019-02-16T10:35:18.350Z,0.42
2019-02-16T10:36:29.316Z,0.55
2019-02-16T10:37:39.374Z,0.63
2019-02-16T10:38:49.346Z,0.84
2019-02-16T10:39:59.267Z,0.92
2019-02-16T10:41:09.200Z,1.02
2019-02-16T10:42:19.130Z,1.13
2019-02-16T10:43:29.055Z,1.22
2019-02-16T10:44:39.045Z,1.22
2019-02-16T10:45:48.966Z,1.32
2019-02-16T10:46:58.888Z,1.36
2019-02-16T10:48:08.812Z,1.36
2019-02-16T10:49:18.734Z,1.49
2019-02-16T10:50:28.764Z,1.52
2019-02-16T10:51:38.691Z,1.56
2019-02-16T10:52:48.607Z,1.58
2019-02-16T10:53:58.527Z,1.63
2019-02-16T10:55:08.413Z,1.74
2019-02-16T10:56:18.431Z,1.85
2019-02-16T10:57:28.355Z,1.89
2019-02-16T10:58:38.274Z,1.84
2019-02-16T10:59:48.397Z,1.81
2019-02-16T11:00:58.317Z,1.75
2019-02-16T11:02:08.241Z,1.75
2019-02-16T11:03:19.942Z,1.71
2019-02-16T11:04:40.286Z,1.88
2019-02-16T11:05:50.204Z,2.03
2019-02-16T11:07:00.126Z,2.1
2019-02-16T11:08:10.154Z,2.18
2019-02-16T11:09:20.073Z,2.47
2019-02-16T11:10:29.996Z,2.57
2019-02-16T11:11:39.918Z,2.76
2019-02-16T11:12:50.898Z,2.95
2019-02-16T11:14:00.816Z,3.13
2019-02-16T11:15:10.752Z,3.46
2019-02-16T11:16:20.735Z,3.68
2019-02-16T11:17:30.666Z,3.95
2019-02-16T11:18:40.686Z,4.21
2019-02-16T11:19:50.619Z,4.5
2019-02-16T11:21:00.542Z,4.87
2019-02-16T11:22:10.530Z,5.19
2019-02-16T11:23:20.463Z,5.41
2019-02-16T11:24:38.391Z,5.59
2019-02-16T11:25:48.063Z,5.95
2019-02-16T11:26:57.986Z,5.88
2019-02-16T11:28:07.984Z,6.05
2019-02-16T11:29:17.912Z,6.41
2019-02-16T11:30:27.888Z,5.87
2019-02-16T11:31:37.811Z,5.37
2019-02-16T11:32:47.737Z,5.46
2019-02-16T11:33:57.658Z,5.46
2019-02-16T11:35:07.334Z,5.37
2019-02-16T11:36:18.079Z,5.28
2019-02-16T11:37:28.005Z,5.47
2019-02-16T11:38:37.930Z,5.81
2019-02-16T11:39:47.616Z,5.81
2019-02-16T11:40:57.547Z,5.77
2019-02-16T11:42:07.590Z,6.02
2019-02-16T11:43:17.517Z,5.9
2019-02-16T11:44:27.449Z,5.64
2019-02-16T11:45:37.544Z,5.36
2019-02-16T11:46:47.478Z,5.8
2019-02-16T11:47:57.466Z,6.12
2019-02-16T11:49:08.416Z,6.44
2019-02-16T11:50:18.353Z,6.56
2019-02-16T11:51:28.294Z,6.59
2019-02-16T11:52:38.238Z,6.64
2019-02-16T11:53:48.021Z,6.32
2019-02-16T11:54:59.349Z,6.25
2019-02-16T11:56:09.290Z,5.87
2019-02-16T11:57:19.244Z,5.7
2019-02-16T11:58:29.180Z,5.64
2019-02-16T11:59:39.161Z,5.58
2019-02-16T12:00:49.098Z,5.56
2019-02-16T12:01:59.035Z,5.84
2019-02-16T12:03:08.974Z,5.83
2019-02-16T12:04:19.706Z,5.8
2019-02-16T12:05:29.798Z,5.79
2019-02-16T12:06:39.729Z,5.87
2019-02-16T12:07:49.671Z,6.05
2019-02-16T12:08:59.906Z,6.1
2019-02-16T12:10:09.840Z,6.07
2019-02-16T12:11:19.878Z,6.17
2019-02-16T12:12:29.846Z,6.26
2019-02-16T12:13:39.787Z,6.28
2019-02-16T12:14:49.742Z,6.2
2019-02-16T12:16:00.048Z,6.35
2019-02-16T12:17:09.872Z,6.6
2019-02-16T12:18:19.807Z,7.05
2019-02-16T12:19:29.750Z,7.32
2019-02-16T12:20:39.685Z,7.4
2019-02-16T12:21:49.637Z,7.51
2019-02-16T12:22:59.691Z,7.78
2019-02-16T12:24:09.619Z,8.01
2019-02-16T12:25:19.549Z,8.2
2019-02-16T12:26:29.479Z,8.39
2019-02-16T12:27:39.410Z,8.82
2019-02-16T12:28:49.447Z,9.4
2019-02-16T12:29:59.394Z,9.76
2019-02-16T12:31:09.342Z,10.15
2019-02-16T12:32:19.277Z,10.42
2019-02-16T12:33:29.216Z,10.55
2019-02-16T12:34:39.195Z,10.94
2019-02-16T12:35:49.135Z,11.19
2019-02-16T12:36:59.069Z,11.44
2019-02-16T12:38:09.003Z,11.56
2019-02-16T12:39:18.939Z,11.4
2019-02-16T12:40:28.919Z,11.26
2019-02-16T12:41:38.850Z,10.75
2019-02-16T12:42:48.799Z,10.38
2019-02-16T12:43:58.752Z,10.07
2019-02-16T12:45:08.699Z,9.77
2019-02-16T12:46:18.735Z,9.74
2019-02-16T12:47:28.670Z,10.13
2019-02-16T12:48:38.668Z,10.41
2019-02-16T12:49:48.602Z,10.69
2019-02-16T12:50:59.521Z,11.02
2019-02-16T12:52:09.669Z,11.41
2019-02-16T12:53:19.607Z,11.6
2019-02-16T12:54:29.543Z,11.4
2019-02-16T12:55:39.476Z,11.38
2019-02-16T12:56:49.415Z,11.65
2019-02-16T12:57:59.456Z,11.59
2019-02-16T12:59:09.394Z,11.33
2019-02-16T13:00:19.086Z,11.07
2019-02-16T13:01:29.029Z,11.01
2019-02-16T13:02:38.994Z,10.42
2019-02-16T13:03:49.035Z,9.92
2019-02-16T13:04:59.028Z,9.85
2019-02-16T13:06:08.973Z,9.63
2019-02-16T13:07:18.969Z,9.67
2019-02-16T13:08:28.932Z,9.64
2019-02-16T13:09:40.286Z,9.49
2019-02-16T13:10:50.385Z,9.3
2019-02-16T13:12:00.105Z,8.93
2019-02-16T13:13:10.087Z,8.71
2019-02-16T13:14:19.829Z,8.79
2019-02-16T13:15:29.891Z,8.77
2019-02-16T13:16:39.838Z,8.86
2019-02-16T13:17:49.524Z,9.11
2019-02-16T13:18:59.458Z,9.09
2019-02-16T13:20:09.149Z,8.84
2019-02-16T13:21:19.344Z,8.35
2019-02-16T13:22:29.280Z,8.39
2019-02-16T13:23:39.222Z,8.24
2019-02-16T13:24:49.969Z,7.56
2019-02-16T13:25:59.900Z,7.1
2019-02-16T13:27:09.890Z,6.9
2019-02-16T13:28:19.824Z,6.67
2019-02-16T13:29:29.783Z,6.59
2019-02-16T13:30:39.713Z,7.1
2019-02-16T13:31:49.647Z,6.8
2019-02-16T13:33:08.219Z,6.65
2019-02-16T13:34:18.257Z,6.52
2019-02-16T13:35:28.251Z,6.56
2019-02-16T13:36:38.182Z,6.47
2019-02-16T13:37:48.112Z,6.29
2019-02-16T13:38:58.101Z,6.17
2019-02-16T13:40:08.042Z,6.28
2019-02-16T13:41:17.973Z,6.39
2019-02-16T13:42:27.910Z,6.16
2019-02-16T13:43:37.841Z,6.28
2019-02-16T13:44:47.816Z,6.13
2019-02-16T13:45:57.753Z,6.07
2019-02-16T13:47:07.682Z,6.09
2019-02-16T13:48:17.608Z,5.94
2019-02-16T13:49:27.564Z,5.94
2019-02-16T13:50:37.547Z,5.88
2019-02-16T13:51:47.473Z,5.95
2019-02-16T13:52:57.398Z,5.8
2019-02-16T13:54:07.078Z,5.72
2019-02-16T13:55:17.002Z,5.65
2019-02-16T13:56:26.986Z,5.62
2019-02-16T13:57:36.920Z,5.51
2019-02-16T13:58:46.856Z,5.46
2019-02-16T13:59:56.280Z,5.4
2019-02-16T14:01:06.210Z,5.28
2019-02-16T14:02:15.956Z,5.02
2019-02-16T14:03:25.900Z,4.98
2019-02-16T14:04:35.825Z,4.84
2019-02-16T14:05:45.752Z,4.71
2019-02-16T14:06:55.676Z,4.58
2019-02-16T14:08:05.973Z,4.53
2019-02-16T14:09:16.079Z,4.5
2019-02-16T14:10:26.003Z,4.5
2019-02-16T14:11:35.940Z,4.49
2019-02-16T14:12:45.867Z,4.48
2019-02-16T14:13:55.890Z,4.3
2019-02-16T14:15:05.815Z,4.14
2019-02-16T14:16:15.748Z,3.95
2019-02-16T14:17:25.686Z,3.84
2019-02-16T14:18:35.609Z,3.91
2019-02-16T14:19:45.582Z,3.82
2019-02-16T14:20:55.504Z,3.81
2019-02-16T14:22:05.433Z,3.71
2019-02-16T14:23:15.355Z,3.56
2019-02-16T14:24:25.278Z,3.46
2019-02-16T14:25:42.495Z,3.15
2019-02-16T14:26:53.540Z,3.21
2019-02-16T14:28:03.466Z,3.05
2019-02-16T14:29:13.396Z,3.03
2019-02-16T14:30:23.323Z,2.98
2019-02-16T14:31:33.643Z,3.05
2019-02-16T14:32:43.575Z,3.03
2019-02-16T14:33:53.504Z,3.01
2019-02-16T14:35:05.036Z,3.09
2019-02-16T14:36:14.966Z,2.98
2019-02-16T14:37:26.021Z,3.06
2019-02-16T14:38:36.028Z,2.97
2019-02-16T14:39:45.950Z,2.9
2019-02-16T14:40:55.916Z,3
2019-02-16T14:42:05.847Z,2.95
2019-02-16T14:43:15.877Z,2.94
2019-02-16T14:44:25.798Z,2.97
2019-02-16T14:45:35.725Z,2.98
2019-02-16T14:46:45.653Z,2.88
2019-02-16T14:47:55.325Z,2.93
2019-02-16T14:49:05.354Z,3.06
2019-02-16T14:50:16.798Z,3.05
2019-02-16T14:51:26.824Z,2.94
2019-02-16T14:52:36.751Z,2.87
2019-02-16T14:53:46.674Z,2.82
2019-02-16T14:54:56.700Z,2.76
2019-02-16T14:56:06.380Z,2.85
2019-02-16T14:57:16.299Z,2.77
2019-02-16T14:58:26.222Z,2.69
2019-02-16T14:59:36.174Z,2.72
2019-02-16T15:00:46.203Z,2.64
2019-02-16T15:01:56.124Z,2.51
2019-02-16T15:03:06.046Z,2.59
2019-02-16T15:04:15.972Z,2.55
2019-02-16T15:05:25.891Z,2.5
2019-02-16T15:06:36.534Z,2.41
2019-02-16T15:07:46.583Z,2.46
2019-02-16T15:08:56.514Z,2.36
2019-02-16T15:10:06.443Z,2.37
2019-02-16T15:11:16.371Z,2.37
2019-02-16T15:12:26.357Z,2.39
2019-02-16T15:13:36.310Z,2.39
2019-02-16T15:14:46.234Z,2.41
2019-02-16T15:15:56.168Z,2.43
2019-02-16T15:17:06.110Z,2.3
2019-02-16T15:18:16.131Z,2.33